Time;durP1;ratioP1;P1;durP2;ratioP2;P2;SDS_P1;SDS_P2;PMS_P1;PMS_P2;Temp;Humidity;BMP_temperature;BMP_pressure;BME280_temperature;BME280_humidity;BME280_pressure;Samples;Min_cycle;Max_cycle;Signal;HPM_P1;HPM_P2
2021/01/02 00:01:00;;;;;;;;;;;;;;;;;;5107168;28;19956;-54
2021/01/02 00:06:23;;;;;;;;;;;;;;;;;;5119681;28;20278;-54
2021/01/02 00:08:49;;;;;;;;;;;;;;;;;;5130471;28;20368;-56
2021/01/02 00:11:24;;;;;;;;;;;;;;;;;;5130010;28;19903;-58
2021/01/02 00:13:53;;;;;;;;;;;;;;;;;;5106403;28;20001;-53
2021/01/02 00:16:59;;;;;;;;;;;;;;;;;;5067785;28;19927;-55
2021/01/02 00:22:15;;;;;;;;;;;;;;;;;;5115558;28;19911;-51
2021/01/02 00:27:40;;;;;;;;;;;;;;;;;;5047320;28;19905;-57
2021/01/02 00:30:18;;;;;;;;;;;;;;;;;;5129873;28;19903;-54
2021/01/02 00:32:51;;;;;;;;;;;;;;;;;;5111809;28;19903;-53
2021/01/02 00:35:23;;;;;;;;;;;;;;;;;;5130423;28;19967;-55
2021/01/02 00:37:50;;;;;;;;;;;;;;;;;;5111431;28;20404;-56
2021/01/02 00:40:25;;;;;;;;;;;;;;;;;;5112175;28;19910;-55
2021/01/02 00:50:56;;;;;;;;;;;;;;;;;;5130237;28;19927;-55
2021/01/02 00:53:22;;;;;;;;;;;;;;;;;;5129866;28;19904;-55
2021/01/02 00:55:48;;;;;;;;;;;;;;;;;;5096110;28;19911;-54
2021/01/02 00:58:14;;;;;;;;;;;;;;;;;;5130225;28;19904;-53
2021/01/02 01:00:40;;;;;;;;;;;;;;;;;;5130068;28;19903;-54
2021/01/02 01:06:03;;;;;;;;;;;;;;;;;;;;;
2021/01/02 01:08:29;;;;;;;;;;;;;;;;;;5133559;28;19947;-54
2021/01/02 01:16:48;;;;;;;;;;;;;;;;;;5030683;28;19912;-53
2021/01/02 01:19:20;;;;;;;;;;;;;;;;;;5030055;28;20008;-57
2021/01/02 01:21:52;;;;;;;;;;;;;;;;;;5050295;28;19908;-55
2021/01/02 01:24:36;;;;;;;;;;;;;;;;;;5070568;28;19920;-55
2021/01/02 01:27:08;;;;;;;;;;;;;;;;;;5053151;28;19905;-55
2021/01/02 01:29:47;;;;;;;;;;;;;;;;;;5070148;28;19905;-57
2021/01/02 01:32:15;;;;;;;;;;;;;;;;;;5053007;28;19940;-57
2021/01/02 01:34:43;;;;;;;;;;;;;;;;;;5070627;28;19948;-57
2021/01/02 01:43:08;;;;;;;;;;;;;;;;;;5029155;28;20402;-56
2021/01/02 01:45:34;;;;;;;;;;;;;;;;;;5029904;28;19977;-58
2021/01/02 01:48:19;;;;;;;;;;;;;;;;;;5030041;28;19910;-57
2021/01/02 01:50:48;;;;;;;;;;;;;;;;;;5030720;28;20393;-56
2021/01/02 01:56:16;;;;;;;;;;;;;;;;;;5111644;28;19904;-58
2021/01/02 01:58:48;;;;;;;;;;;;;;;;;;5112070;28;19904;-53
2021/01/02 02:01:16;;;;;;;;;;;;;;;;;;5112410;28;19904;-54
2021/01/02 02:04:01;;;;;;;;;;;;;;;;;;5112092;28;19907;-55
2021/01/02 02:06:33;;;;;;;;;;;;;;;;;;5112077;28;19908;-56
2021/01/02 02:17:36;;;;;;;;;;;;;;;;;;5111437;28;19911;-57
2021/01/02 02:20:18;;;;;;;;;;;;;;;;;;5131528;28;19983;-53
2021/01/02 02:25:29;;;;;;;;;;;;;;;;;;5132084;28;19985;-54
2021/01/02 02:28:04;;;;;;;;;;;;;;;;;;5132310;28;20310;-52
2021/01/02 02:30:42;;;;;;;;;;;;;;;;;;5131896;28;19927;-55
2021/01/02 02:33:08;;;;;;;;;;;;;;;;;;5131615;28;19910;-52
2021/01/02 02:35:39;;;;;;;;;;;;;;;;;;5132071;28;19966;-54
2021/01/02 02:38:17;;;;;;;;;;;;;;;;;;5132266;28;19903;-56
2021/01/02 02:40:46;;;;;;;;;;;;;;;;;;5131601;28;19910;-56
2021/01/02 02:43:15;;;;;;;;;;;;;;;;;;5131904;28;19915;-56
2021/01/02 02:45:53;;;;;;;;;;;;;;;;;;5112404;28;19970;-55
2021/01/02 02:48:22;;;;;;;;;;;;;;;;;;5131260;28;19904;-55
2021/01/02 02:53:33;;;;;;;;;;;;;;;;;;5131517;28;19914;-56
2021/01/02 02:56:11;;;;;;;;;;;;;;;;;;5131309;28;19903;-56
2021/01/02 03:01:29;;;;;;;;;;;;;;;;;;5125766;28;19963;-53
2021/01/02 03:04:05;;;;;;;;;;;;;;;;;;5113648;28;19915;-53
2021/01/02 03:06:39;;;;;;;;;;;;;;;;;;5131365;28;19911;-52
2021/01/02 03:09:23;;;;;;;;;;;;;;;;;;5131578;28;19903;-56
2021/01/02 03:11:53;;;;;;;;;;;;;;;;;;5131385;28;19975;-52
2021/01/02 03:14:22;;;;;;;;;;;;;;;;;;5131655;28;19971;-54
2021/01/02 03:22:24;;;;;;;;;;;;;;;;;;5068051;28;20310;-54
2021/01/02 03:33:28;;;;;;;;;;;;;;;;;;5130973;28;19926;-55
2021/01/02 03:36:13;;;;;;;;;;;;;;;;;;;;;
2021/01/02 03:41:29;;;;;;;;;;;;;;;;;;5081131;28;19979;-57
2021/01/02 03:43:55;;;;;;;;;;;;;;;;;;5071739;28;19964;-53
2021/01/02 03:49:08;;;;;;;;;;;;;;;;;;5067924;28;19911;-55
2021/01/02 03:54:48;;;;;;;;;;;;;;;;;;5079548;28;19911;-54
2021/01/02 03:57:20;;;;;;;;;;;;;;;;;;5088282;28;19905;-57
2021/01/02 03:59:50;;;;;;;;;;;;;;;;;;5088616;28;19951;-56
2021/01/02 04:02:19;;;;;;;;;;;;;;;;;;5088001;28;19908;-53
2021/01/02 04:05:06;;;;;;;;;;;;;;;;;;5088461;28;19940;-56
2021/01/02 04:07:35;;;;;;;;;;;;;;;;;;5087660;28;19911;-55
2021/01/02 04:12:53;;;;;;;;;;;;;;;;;;5095886;28;19915;-52
2021/01/02 04:15:25;;;;;;;;;;;;;;;;;;5130100;28;19903;-54
2021/01/02 04:17:53;;;;;;;;;;;;;;;;;;5130588;28;19931;-55
2021/01/02 04:20:34;;;;;;;;;;;;;;;;;;5130072;28;19961;-55
2021/01/02 04:23:04;;;;;;;;;;;;;;;;;;5130216;28;19914;-57
2021/01/02 04:25:31;;;;;;;;;;;;;;;;;;5130550;28;19908;-57
2021/01/02 04:28:12;;;;;;;;;;;;;;;;;;5129973;28;19904;-55
2021/01/02 04:31:00;;;;;;;;;;;;;;;;;;5128295;28;19925;-54
2021/01/02 04:36:10;;;;;;;;;;;;;;;;;;5115031;28;20011;-56
2021/01/02 04:38:42;;;;;;;;;;;;;;;;;;5113468;28;19903;-56
2021/01/02 04:41:11;;;;;;;;;;;;;;;;;;5119507;28;20299;-54
2021/01/02 04:43:51;;;;;;;;;;;;;;;;;;5118699;28;20406;-55
2021/01/02 04:46:23;;;;;;;;;;;;;;;;;;5118838;28;20352;-54
2021/01/02 04:48:49;;;;;;;;;;;;;;;;;;5119057;28;20029;-52
2021/01/02 04:51:18;;;;;;;;;;;;;;;;;;5118716;28;19904;-52
2021/01/02 04:59:46;;;;;;;;;;;;;;;;;;5118051;28;20363;-57
2021/01/02 05:02:17;;;;;;;;;;;;;;;;;;5118296;28;19954;-56
2021/01/02 05:04:45;;;;;;;;;;;;;;;;;;5101057;28;20257;-52
2021/01/02 05:07:19;;;;;;;;;;;;;;;;;;5118118;28;19943;-56
2021/01/02 05:09:51;;;;;;;;;;;;;;;;;;5095860;28;20351;-56
2021/01/02 05:12:19;;;;;;;;;;;;;;;;;;5118596;28;19957;-53
2021/01/02 05:14:45;;;;;;;;;;;;;;;;;;5119639;28;20317;-55
2021/01/02 05:17:29;;;;;;;;;;;;;;;;;;5118612;28;19956;-55
2021/01/02 05:22:58;;;;;;;;;;;;;;;;;;;;;
2021/01/02 05:25:29;;;;;;;;;;;;;;;;;;5098527;28;19908;-55
2021/01/02 05:28:04;;;;;;;;;;;;;;;;;;5097439;28;19904;-55
2021/01/02 05:30:34;;;;;;;;;;;;;;;;;;5097505;28;19940;-51
2021/01/02 05:33:01;;;;;;;;;;;;;;;;;;5096462;28;19908;-54
2021/01/02 05:35:36;;;;;;;;;;;;;;;;;;5098545;28;20330;-53
2021/01/02 05:38:04;;;;;;;;;;;;;;;;;;5098051;28;19903;-54
2021/01/02 05:43:17;;;;;;;;;;;;;;;;;;5087365;28;19908;-54
2021/01/02 05:45:47;;;;;;;;;;;;;;;;;;5097620;28;20376;-56
2021/01/02 05:51:11;;;;;;;;;;;;;;;;;;5041556;28;19905;-52
2021/01/02 05:53:44;;;;;;;;;;;;;;;;;;5098325;28;19904;-55
2021/01/02 05:56:09;;;;;;;;;;;;;;;;;;5097477;28;19989;-55
2021/01/02 06:04:13;;;;;;;;;;;;;;;;;;5073495;28;19912;-55
2021/01/02 06:06:45;;;;;;;;;;;;;;;;;;5098403;28;19904;-55
2021/01/02 06:09:27;;;;;;;;;;;;;;;;;;;;;
2021/01/02 06:11:57;;;;;;;;;;;;;;;;;;5098167;28;20342;-56
2021/01/02 06:14:29;;;;;;;;;;;;;;;;;;5079374;28;19910;-57
2021/01/02 06:17:01;;;;;;;;;;;;;;;;;;5097513;28;19911;-56
2021/01/02 06:19:29;;;;;;;;;;;;;;;;;;5080828;28;20014;-55
2021/01/02 06:21:58;;;;;;;;;;;;;;;;;;5117532;28;20319;-54
2021/01/02 06:27:08;;;;;;;;;;;;;;;;;;5117851;28;19911;-54
2021/01/02 06:29:34;;;;;;;;;;;;;;;;;;5098932;28;19904;-51
2021/01/02 06:32:01;;;;;;;;;;;;;;;;;;5099229;28;20260;-54
2021/01/02 06:34:45;;;;;;;;;;;;;;;;;;5081966;28;20435;-55
2021/01/02 06:37:29;;;;;;;;;;;;;;;;;;5117736;28;19904;-52
2021/01/02 06:45:47;;;;;;;;;;;;;;;;;;5124430;28;20410;-54
2021/01/02 06:49:05;;;;;;;;;;;;;;;;;;;;;
2021/01/02 06:51:04;;;;;;;;;;;;;;;;;;5099271;28;20004;-57
2021/01/02 06:53:33;;;;;;;;;;;;;;;;;;5116086;28;19989;-53
2021/01/02 06:56:02;;;;;;;;;;;;;;;;;;5116483;28;19908;-53
2021/01/02 06:58:34;;;;;;;;;;;;;;;;;;5117249;28;19910;-53
2021/01/02 07:01:04;;;;;;;;;;;;;;;;;;5098022;28;20349;-54
2021/01/02 07:09:13;;;;;;;;;;;;;;;;;;5107424;28;19990;-54
2021/01/02 07:14:24;;;;;;;;;;;;;;;;;;5115750;28;19995;-54
2021/01/02 07:16:53;;;;;;;;;;;;;;;;;;5116370;28;19907;-56
2021/01/02 07:22:17;;;;;;;;;;;;;;;;;;5115128;28;20454;-53
2021/01/02 07:25:14;;;;;;;;;;;;;;;;;;;;;
2021/01/02 07:30:46;;;;;;;;;;;;;;;;;;5115861;28;20393;-55
2021/01/02 07:33:14;;;;;;;;;;;;;;;;;;5114827;28;20353;-55
2021/01/02 07:35:49;;;;;;;;;;;;;;;;;;5095367;28;19930;-51
2021/01/02 07:38:25;;;;;;;;;;;;;;;;;;5116004;28;19904;-55
2021/01/02 07:40:54;;;;;;;;;;;;;;;;;;5115984;28;19908;-53
2021/01/02 07:43:29;;;;;;;;;;;;;;;;;;5115735;28;19915;-54
2021/01/02 07:46:13;;;;;;;;;;;;;;;;;;5096425;28;20394;-52
2021/01/02 07:51:24;;;;;;;;;;;;;;;;;;5115785;28;20002;-52
2021/01/02 07:53:53;;;;;;;;;;;;;;;;;;5115539;28;19939;-56
2021/01/02 07:56:25;;;;;;;;;;;;;;;;;;5110101;28;19904;-55
2021/01/02 07:58:54;;;;;;;;;;;;;;;;;;5072993;28;19943;-53
2021/01/02 08:01:34;;;;;;;;;;;;;;;;;;5073653;28;20018;-57
2021/01/02 08:04:03;;;;;;;;;;;;;;;;;;5072676;28;19924;-52
2021/01/02 08:06:38;;;;;;;;;;;;;;;;;;5072298;28;19909;-55
2021/01/02 08:09:07;;;;;;;;;;;;;;;;;;5059533;28;19905;-57
2021/01/02 08:14:17;;;;;;;;;;;;;;;;;;5072585;28;20399;-57
2021/01/02 08:17:00;;;;;;;;;;;;;;;;;;;;;
2021/01/02 08:22:29;;;;;;;;;;;;;;;;;;5072758;28;19942;-55
2021/01/02 08:24:57;;;;;;;;;;;;;;;;;;5073255;28;20321;-55
2021/01/02 08:30:28;;;;;;;;;;;;;;;;;;5099659;28;19926;-57
2021/01/02 08:35:43;;;;;;;;;;;;;;;;;;5100739;28;19904;-57
2021/01/02 08:38:30;;;;;;;;;;;;;;;;;;5115325;28;19930;-55
2021/01/02 08:43:47;;;;;;;;;;;;;;;;;;5104545;28;20007;-57
2021/01/02 08:49:18;;;;;;;;;;;;;;;;;;5032425;28;19994;-57
2021/01/02 08:51:47;;;;;;;;;;;;;;;;;;5100522;28;19904;-55
2021/01/02 08:54:18;;;;;;;;;;;;;;;;;;5116308;28;19995;-56
2021/01/02 08:59:31;;;;;;;;;;;;;;;;;;5103915;28;19904;-57
2021/01/02 09:02:13;;;;;;;;;;;;;;;;;;5113847;28;20353;-57
2021/01/02 09:04:42;;;;;;;;;;;;;;;;;;5115150;28;20367;-55
2021/01/02 09:07:21;;;;;;;;;;;;;;;;;;5096181;28;20353;-56
2021/01/02 09:09:50;;;;;;;;;;;;;;;;;;5115363;28;19903;-55
2021/01/02 09:12:22;;;;;;;;;;;;;;;;;;5051237;28;19913;-56
2021/01/02 09:20:28;;;;;;;;;;;;;;;;;;5046240;28;19939;-57
2021/01/02 09:25:40;;;;;;;;;;;;;;;;;;5052183;28;20025;-57
2021/01/02 09:28:12;;;;;;;;;;;;;;;;;;5055391;28;19952;-57
2021/01/02 09:33:46;;;;;;;;;;;;;;;;;;;;;
2021/01/02 09:36:15;;;;;;;;;;;;;;;;;;5051224;28;20345;-57
2021/01/02 09:38:59;;;;;;;;;;;;;;;;;;5055535;28;19904;-54
2021/01/02 09:41:41;;;;;;;;;;;;;;;;;;5055522;28;19906;-54
2021/01/02 09:44:17;;;;;;;;;;;;;;;;;;;;;
2021/01/02 09:47:09;;;;;;;;;;;;;;;;;;;;;
2021/01/02 09:49:41;;;;;;;;;;;;;;;;;;5117595;28;20308;-56
2021/01/02 09:52:10;;;;;;;;;;;;;;;;;;5117672;28;19904;-56
2021/01/02 09:54:46;;;;;;;;;;;;;;;;;;;;;
2021/01/02 09:57:14;;;;;;;;;;;;;;;;;;5118021;28;19904;-52
2021/01/02 10:02:53;;;;;;;;;;;;;;;;;;5084934;28;19957;-55
2021/01/02 10:05:22;;;;;;;;;;;;;;;;;;5118419;28;19914;-56
2021/01/02 10:10:36;;;;;;;;;;;;;;;;;;5117448;28;19967;-55
2021/01/02 10:15:50;;;;;;;;;;;;;;;;;;5117903;28;20037;-55
2021/01/02 10:18:25;;;;;;;;;;;;;;;;;;5116626;28;20313;-55
2021/01/02 10:20:54;;;;;;;;;;;;;;;;;;5092228;28;20329;-57
2021/01/02 10:23:23;;;;;;;;;;;;;;;;;;5096964;28;19912;-55
2021/01/02 10:29:04;;;;;;;;;;;;;;;;;;5082878;28;19904;-56
2021/01/02 10:31:38;;;;;;;;;;;;;;;;;;5073902;28;20309;-54
2021/01/02 10:34:06;;;;;;;;;;;;;;;;;;5097577;28;19904;-55
2021/01/02 10:36:38;;;;;;;;;;;;;;;;;;5096434;28;19904;-57
2021/01/02 10:39:15;;;;;;;;;;;;;;;;;;5096568;28;20329;-57
2021/01/02 10:41:49;;;;;;;;;;;;;;;;;;5054056;28;19905;-56
2021/01/02 10:47:00;;;;;;;;;;;;;;;;;;5054626;28;19915;-57
2021/01/02 10:49:28;;;;;;;;;;;;;;;;;;5037365;28;20406;-57
2021/01/02 10:51:57;;;;;;;;;;;;;;;;;;5053509;28;20318;-57
2021/01/02 10:54:32;;;;;;;;;;;;;;;;;;5038179;28;19905;-55
2021/01/02 10:57:11;;;;;;;;;;;;;;;;;;;;;
2021/01/02 10:59:49;;;;;;;;;;;;;;;;;;5051243;28;20370;-56
2021/01/02 11:05:11;;;;;;;;;;;;;;;;;;5054225;28;19916;-57
2021/01/02 11:07:38;;;;;;;;;;;;;;;;;;5079656;28;19957;-57
2021/01/02 11:13:11;;;;;;;;;;;;;;;;;;5072732;28;19951;-54
2021/01/02 11:24:19;;;;;;;;;;;;;;;;;;5115782;28;20375;-56
2021/01/02 11:26:45;;;;;;;;;;;;;;;;;;5116307;28;19935;-56
2021/01/02 11:29:12;;;;;;;;;;;;;;;;;;5097682;28;19907;-55
2021/01/02 11:34:29;;;;;;;;;;;;;;;;;;5085777;28;19910;-55
2021/01/02 11:37:09;;;;;;;;;;;;;;;;;;5114635;28;20016;-56
2021/01/02 11:39:35;;;;;;;;;;;;;;;;;;5115520;28;20314;-58
2021/01/02 11:45:00;;;;;;;;;;;;;;;;;;5052496;28;19913;-57
2021/01/02 11:47:25;;;;;;;;;;;;;;;;;;5109944;28;19903;-57
2021/01/02 11:52:59;;;;;;;;;;;;;;;;;;5106960;28;19908;-55
2021/01/02 11:55:56;;;;;;;;;;;;;;;;;;;;;
2021/01/02 12:01:13;;;;;;;;;;;;;;;;;;5106583;28;19915;-57
2021/01/02 12:03:42;;;;;;;;;;;;;;;;;;5072247;28;19947;-58
2021/01/02 12:09:10;;;;;;;;;;;;;;;;;;;;;
2021/01/02 12:11:48;;;;;;;;;;;;;;;;;;5073226;28;20284;-53
2021/01/02 12:14:14;;;;;;;;;;;;;;;;;;5072837;28;19944;-55
2021/01/02 12:19:53;;;;;;;;;;;;;;;;;;5032297;28;19905;-58
2021/01/02 12:25:19;;;;;;;;;;;;;;;;;;5032089;28;19905;-57
2021/01/02 12:27:54;;;;;;;;;;;;;;;;;;5050920;28;20304;-56
2021/01/02 12:30:20;;;;;;;;;;;;;;;;;;5056004;28;19905;-58
2021/01/02 12:32:49;;;;;;;;;;;;;;;;;;5052400;28;19907;-58
2021/01/02 12:35:15;;;;;;;;;;;;;;;;;;5053206;28;19950;-58
2021/01/02 12:37:44;;;;;;;;;;;;;;;;;;5052322;28;19992;-58
2021/01/02 12:40:16;;;;;;;;;;;;;;;;;;5054710;28;19905;-57
2021/01/02 12:51:17;;;;;;;;;;;;;;;;;;5072445;28;20373;-54
2021/01/02 12:53:43;;;;;;;;;;;;;;;;;;5073355;28;19963;-57
2021/01/02 12:59:04;;;;;;;;;;;;;;;;;;5037036;28;19908;-57
2021/01/02 13:01:33;;;;;;;;;;;;;;;;;;5054761;28;19908;-56
2021/01/02 13:04:04;;;;;;;;;;;;;;;;;;5067050;28;19912;-58
2021/01/02 13:06:48;;;;;;;;;;;;;;;;;;5076390;28;19904;-58
2021/01/02 13:09:20;;;;;;;;;;;;;;;;;;5075414;28;20447;-58
2021/01/02 13:14:33;;;;;;;;;;;;;;;;;;5076296;28;19993;-55
2021/01/02 13:17:01;;;;;;;;;;;;;;;;;;5076540;28;19931;-56
2021/01/02 13:19:45;;;;;;;;;;;;;;;;;;5059247;28;19904;-57
2021/01/02 13:24:57;;;;;;;;;;;;;;;;;;5081903;28;19934;-57
2021/01/02 13:27:26;;;;;;;;;;;;;;;;;;5075164;28;19972;-55
2021/01/02 13:30:10;;;;;;;;;;;;;;;;;;5076116;28;19973;-57
2021/01/02 13:33:01;;;;;;;;;;;;;;;;;;5075110;28;19908;-57
2021/01/02 13:35:30;;;;;;;;;;;;;;;;;;5075935;28;20444;-57
2021/01/02 13:41:04;;;;;;;;;;;;;;;;;;5034664;28;19916;-57
2021/01/02 13:46:22;;;;;;;;;;;;;;;;;;5027037;28;19959;-55
2021/01/02 13:48:54;;;;;;;;;;;;;;;;;;5034767;28;19941;-58
2021/01/02 13:54:13;;;;;;;;;;;;;;;;;;5035114;28;19948;-57
2021/01/02 13:56:55;;;;;;;;;;;;;;;;;;5034891;28;19909;-58
2021/01/02 13:59:24;;;;;;;;;;;;;;;;;;5017940;28;20455;-58
2021/01/02 14:01:53;;;;;;;;;;;;;;;;;;5034278;28;20321;-55
2021/01/02 14:04:29;;;;;;;;;;;;;;;;;;;;;
2021/01/02 14:06:58;;;;;;;;;;;;;;;;;;5005189;28;19915;-58
2021/01/02 14:09:24;;;;;;;;;;;;;;;;;;5053913;28;20425;-57
2021/01/02 14:11:52;;;;;;;;;;;;;;;;;;5058153;28;19983;-56
2021/01/02 14:17:33;;;;;;;;;;;;;;;;;;;;;
2021/01/02 14:25:36;;;;;;;;;;;;;;;;;;5094893;28;20446;-54
2021/01/02 14:28:03;;;;;;;;;;;;;;;;;;5078485;28;20369;-58
2021/01/02 14:30:37;;;;;;;;;;;;;;;;;;5077508;28;19965;-57
2021/01/02 14:33:12;;;;;;;;;;;;;;;;;;5074221;28;20429;-57
2021/01/02 14:35:45;;;;;;;;;;;;;;;;;;5087251;28;20334;-57
2021/01/02 14:38:24;;;;;;;;;;;;;;;;;;;;;
2021/01/02 14:41:08;;;;;;;;;;;;;;;;;;;;;
2021/01/02 14:43:38;;;;;;;;;;;;;;;;;;5044887;28;20334;-57
2021/01/02 14:46:07;;;;;;;;;;;;;;;;;;5095157;28;20002;-58
2021/01/02 14:48:42;;;;;;;;;;;;;;;;;;5094662;28;19904;-58
2021/01/02 14:51:20;;;;;;;;;;;;;;;;;;5094462;28;20392;-54
2021/01/02 14:53:56;;;;;;;;;;;;;;;;;;;;;
2021/01/02 14:56:43;;;;;;;;;;;;;;;;;;5094683;28;19904;-56
2021/01/02 14:59:12;;;;;;;;;;;;;;;;;;5077133;28;20341;-53
2021/01/02 15:01:52;;;;;;;;;;;;;;;;;;5093957;28;20365;-58
2021/01/02 15:04:21;;;;;;;;;;;;;;;;;;5094548;28;20022;-57
2021/01/02 15:06:48;;;;;;;;;;;;;;;;;;5106985;28;19994;-57
2021/01/02 15:12:00;;;;;;;;;;;;;;;;;;5116415;28;19930;-57
2021/01/02 15:14:26;;;;;;;;;;;;;;;;;;5101649;28;19903;-58
2021/01/02 15:16:52;;;;;;;;;;;;;;;;;;5116891;28;19903;-56
2021/01/02 15:19:34;;;;;;;;;;;;;;;;;;5116364;28;19951;-56
2021/01/02 15:22:15;;;;;;;;;;;;;;;;;;5112560;28;19937;-57
2021/01/02 15:27:33;;;;;;;;;;;;;;;;;;5116037;28;19938;-51
2021/01/02 15:32:48;;;;;;;;;;;;;;;;;;5094807;28;20056;-52
2021/01/02 15:35:26;;;;;;;;;;;;;;;;;;5114982;28;19910;-56
2021/01/02 15:38:08;;;;;;;;;;;;;;;;;;;;;
2021/01/02 15:40:57;;;;;;;;;;;;;;;;;;;;;
2021/01/02 15:43:32;;;;;;;;;;;;;;;;;;5101108;28;19915;-55
2021/01/02 15:46:13;;;;;;;;;;;;;;;;;;5116460;28;19914;-51
2021/01/02 15:51:49;;;;;;;;;;;;;;;;;;5113865;28;19935;-57
2021/01/02 15:54:15;;;;;;;;;;;;;;;;;;5115555;28;20250;-57
2021/01/02 15:56:55;;;;;;;;;;;;;;;;;;5115450;28;19949;-52
2021/01/02 16:02:19;;;;;;;;;;;;;;;;;;5105658;28;19904;-53
2021/01/02 16:04:58;;;;;;;;;;;;;;;;;;;;;
2021/01/02 16:07:30;;;;;;;;;;;;;;;;;;5115301;28;19904;-58
2021/01/02 16:10:05;;;;;;;;;;;;;;;;;;5113245;28;20360;-57
2021/01/02 16:12:35;;;;;;;;;;;;;;;;;;5116219;28;19910;-57
2021/01/02 16:20:42;;;;;;;;;;;;;;;;;;5115168;28;19903;-57
2021/01/02 16:23:17;;;;;;;;;;;;;;;;;;5111541;28;19923;-57
2021/01/02 16:28:29;;;;;;;;;;;;;;;;;;5115036;28;20268;-55
2021/01/02 16:31:11;;;;;;;;;;;;;;;;;;5112574;28;19908;-57
2021/01/02 16:33:40;;;;;;;;;;;;;;;;;;5113535;28;20323;-56
2021/01/02 16:36:31;;;;;;;;;;;;;;;;;;;;;
2021/01/02 16:39:08;;;;;;;;;;;;;;;;;;5120018;28;19903;-58
2021/01/02 16:41:44;;;;;;;;;;;;;;;;;;5096420;28;19954;-57
2021/01/02 16:52:43;;;;;;;;;;;;;;;;;;5078824;28;19973;-55
2021/01/02 16:58:19;;;;;;;;;;;;;;;;;;5087390;28;19904;-56
2021/01/02 17:03:40;;;;;;;;;;;;;;;;;;5096214;28;19912;-56
2021/01/02 17:06:09;;;;;;;;;;;;;;;;;;5096715;28;20348;-58
2021/01/02 17:17:24;;;;;;;;;;;;;;;;;;5109160;28;19950;-55
2021/01/02 17:20:06;;;;;;;;;;;;;;;;;;5118851;28;19910;-57
2021/01/02 17:22:35;;;;;;;;;;;;;;;;;;5118154;28;19915;-57
2021/01/02 17:25:01;;;;;;;;;;;;;;;;;;5118780;28;19910;-57
2021/01/02 17:28:10;;;;;;;;;;;;;;;;;;;;;
2021/01/02 17:30:35;;;;;;;;;;;;;;;;;;5111263;28;19972;-58
2021/01/02 17:33:04;;;;;;;;;;;;;;;;;;5118469;28;19904;-57
2021/01/02 17:35:32;;;;;;;;;;;;;;;;;;5119016;28;20341;-56
2021/01/02 17:38:04;;;;;;;;;;;;;;;;;;5094501;28;20091;-55
2021/01/02 17:40:34;;;;;;;;;;;;;;;;;;5118367;28;19911;-56
2021/01/02 17:43:12;;;;;;;;;;;;;;;;;;5098300;28;20360;-55
2021/01/02 17:45:57;;;;;;;;;;;;;;;;;;;;;
2021/01/02 17:54:00;;;;;;;;;;;;;;;;;;5094337;28;19904;-56
2021/01/02 18:02:14;;;;;;;;;;;;;;;;;;5103389;28;19904;-56
2021/01/02 18:04:49;;;;;;;;;;;;;;;;;;5118033;28;20302;-57
2021/01/02 18:07:33;;;;;;;;;;;;;;;;;;5117382;28;19904;-56
2021/01/02 18:12:54;;;;;;;;;;;;;;;;;;5087846;28;19904;-55
2021/01/02 18:15:22;;;;;;;;;;;;;;;;;;5098557;28;19903;-56
2021/01/02 18:17:57;;;;;;;;;;;;;;;;;;5081178;28;20327;-56
2021/01/02 18:20:23;;;;;;;;;;;;;;;;;;5098480;28;20401;-57
2021/01/02 18:22:55;;;;;;;;;;;;;;;;;;5116201;28;20387;-54
2021/01/02 18:25:43;;;;;;;;;;;;;;;;;;;;;
2021/01/02 18:41:40;;;;;;;10.63;9.13;;;;;;;;;;5174136;27;20325;-53
2021/01/02 18:44:28;;;;;;;12.20;9.63;;;;;;;;;;5132340;27;20495;-51
2021/01/02 18:47:15;;;;;;;14.27;10.70;;;;;;;;;;5133472;27;20208;-53
2021/01/02 18:49:57;;;;;;;11.33;10.00;;;;;;;;;;5132124;27;20035;-57
2021/01/02 18:53:10;;;;;;;15.20;10.60;;;;;;;;;;5150844;27;20365;-56
2021/01/02 18:56:03;;;;;;;16.30;11.30;;;;;;;;;;5130887;27;20035;-55
2021/01/02 18:58:35;;;;;;;12.67;9.07;;;;;;;;;;5151308;27;20121;-54
2021/01/02 19:01:20;;;;;;;16.50;11.77;;;;;;;;;;5150359;27;20092;-55
2021/01/02 19:03:54;;;;;;;17.53;10.40;;;;;;;;;;5150713;27;20035;-55
2021/01/02 19:07:06;;;;;;;;;;;;;;;;;;;;;
2021/01/02 19:09:44;;;;;;;14.10;11.67;;;;;;;;;;5146372;27;20045;-55
2021/01/02 19:12:20;;;;;;;18.00;10.87;;;;;;;;;;5147378;27;20070;-53
2021/01/02 19:15:07;;;;;;;13.20;9.77;;;;;;;;;;5151336;27;20039;-57
2021/01/02 19:18:02;;;;;;;;;;;;;;;;;;;;;
2021/01/02 19:20:41;;;;;;;15.87;10.47;;;;;;;;;;5146880;27;20114;-55
2021/01/02 19:23:44;;;;;;;12.40;9.77;;;;;;;;;;5103175;27;20519;-52
2021/01/02 19:26:17;;;;;;;14.73;10.87;;;;;;;;;;5128782;27;20460;-56
2021/01/02 19:28:52;;;;;;;14.23;11.20;;;;;;;;;;5148897;27;20074;-55
2021/01/02 19:31:19;;;;;;;11.90;10.47;;;;;;;;;;5111178;28;20061;-55
2021/01/02 19:37:09;;;;;;;19.13;11.70;;;;;;;;;;5083247;28;20364;-54
2021/01/02 19:39:52;;;;;;;17.23;11.47;;;;;;;;;;5130997;28;20048;-55
2021/01/02 19:42:35;;;;;;;18.13;13.53;;;;;;;;;;5089159;28;20484;-57
2021/01/02 19:45:22;;;;;;;13.70;10.93;;;;;;;;;;5118390;28;20020;-56
2021/01/02 19:48:13;;;;;;;15.73;12.47;;;;;;;;;;5100757;28;20043;-57
2021/01/02 19:54:10;;;;;;;14.53;10.37;;;;;;;;;;5054252;28;19911;-54
2021/01/02 19:56:59;;;;;;;14.13;10.80;;;;;;;;;;5051358;28;20470;-56
2021/01/02 20:02:26;;;;;;;13.63;10.77;;;;;;;;;;5050201;28;20029;-55
2021/01/02 20:05:22;;;;;;;14.23;11.47;;;;;;;;;;5056032;28;20488;-56
2021/01/02 20:08:01;;;;;;;16.83;12.83;;;;;;;;;;5032040;28;20476;-56
2021/01/02 20:10:57;;;;;;;15.40;11.77;;;;;;;;;;5117290;28;20063;-53
2021/01/02 20:13:48;;;;;;;15.13;12.37;;;;;;;;;;5098357;28;20028;-53
2021/01/02 20:16:40;;;;;;;15.77;11.90;;;;;;;;;;5115983;28;20024;-56
2021/01/02 20:19:21;;;;;;;12.80;10.07;;;;;;;;;;5116795;28;20393;-53
2021/01/02 20:22:11;;;;;;;12.57;11.17;;;;;;;;;;5117050;28;20031;-53
2021/01/02 20:25:06;;;;;;;12.85;10.70;;;;;;;;;;5117163;28;20023;-53
2021/01/02 20:27:59;;;;;;;13.13;9.53;;;;;;;;;;5087238;28;20511;-56
2021/01/02 20:30:47;;;;;;;;;;;;;;;;;;;;;
2021/01/02 20:33:35;;;;;;;15.10;12.73;;;;;;;;;;5116796;28;20027;-56
2021/01/02 20:36:08;;;;;;;17.97;11.57;;;;;;;;;;5078671;28;20036;-57
2021/01/02 20:48:08;;;;;;;21.77;13.30;;;;;;;;;;5090402;28;20125;-53
2021/01/02 20:51:01;;;;;;;;;;;;;;;;;;;;;
2021/01/02 20:53:39;;;;;;;18.77;13.10;;;;;;;;;;5094925;28;20020;-53
2021/01/02 20:56:46;;;;;;;16.67;13.37;;;;;;;;;;5095402;28;20473;-56
2021/01/02 20:59:30;;;;;;;20.23;11.43;;;;;;;;;;5072554;28;20109;-54
2021/01/02 21:02:06;;;;;;;16.60;12.23;;;;;;;;;;5095894;28;20021;-55
2021/01/02 21:07:53;;;;;;;17.93;11.37;;;;;;;;;;5095781;28;20082;-55
2021/01/02 21:10:46;;;;;;;16.97;14.33;;;;;;;;;;5093881;28;20036;-56
2021/01/02 21:13:37;;;;;;;16.97;12.30;;;;;;;;;;5094372;28;20036;-55
2021/01/02 21:19:28;;;;;;;16.23;12.77;;;;;;;;;;5095927;28;20043;-54
2021/01/02 21:22:13;;;;;;;14.20;11.47;;;;;;;;;;5093963;28;20028;-56
2021/01/02 21:24:51;;;;;;;18.50;13.77;;;;;;;;;;5095303;28;20032;-56
2021/01/02 21:27:40;;;;;;;16.50;12.13;;;;;;;;;;5094640;28;20036;-53
2021/01/02 21:30:09;;;;;;;17.77;11.67;;;;;;;;;;5095362;28;20058;-53
2021/01/02 21:33:05;;;;;;;;;;;;;;;;;;;;;
2021/01/02 21:35:41;;;;;;;22.63;15.97;;;;;;;;;;5087845;28;20114;-56
2021/01/02 21:38:25;;;;;;;19.57;13.77;;;;;;;;;;5095912;28;20083;-53
2021/01/02 21:41:00;;;;;;;22.33;13.57;;;;;;;;;;5103888;28;20047;-53
2021/01/02 21:44:02;;;;;;;;;;;;;;;;;;;;;
2021/01/02 21:46:48;;;;;;;19.80;14.30;;;;;;;;;;5015610;28;20153;-56
2021/01/02 21:49:15;;;;;;;15.83;11.87;;;;;;;;;;5095268;28;20036;-55
2021/01/02 21:52:06;;;;;;;19.13;13.97;;;;;;;;;;5096419;28;20036;-56
2021/01/02 21:55:03;;;;;;;18.10;14.37;;;;;;;;;;5085427;28;20560;-56
2021/01/02 21:57:38;;;;;;;20.73;14.67;;;;;;;;;;5115548;28;20445;-54
2021/01/02 22:00:22;;;;;;;21.27;14.53;;;;;;;;;;5096994;28;20448;-54
2021/01/02 22:06:25;;;;;;;20.20;14.13;;;;;;;;;;5017252;28;20468;-52
2021/01/02 22:11:59;;;;;;;;;;;;;;;;;;;;;
2021/01/02 22:18:15;;;;;;;23.00;14.83;;;;;;;;;;5120800;28;20049;-54
2021/01/02 22:21:01;;;;;;;17.30;14.80;;;;;;;;;;5038064;28;20030;-56
2021/01/02 22:26:32;;;;;;;16.47;13.50;;;;;;;;;;5120149;28;20024;-56
2021/01/02 22:29:16;;;;;;;22.37;12.73;;;;;;;;;;5101583;28;20043;-55
2021/01/02 22:31:46;;;;;;;20.23;13.87;;;;;;;;;;5095725;28;20031;-56
2021/01/02 22:34:20;;;;;;;18.60;13.60;;;;;;;;;;5119911;28;20517;-56
2021/01/02 22:37:23;;;;;;;15.20;11.30;;;;;;;;;;5120626;28;20046;-56
2021/01/02 22:39:54;;;;;;;12.20;9.80;;;;;;;;;;5120624;28;20024;-56
2021/01/02 22:42:36;;;;;;;15.02;10.82;;;;;;;;;;5118761;28;20043;-53
2021/01/02 22:45:22;;;;;;;16.13;10.97;;;;;;;;;;5102093;28;20108;-55
2021/01/02 22:48:15;;;;;;;10.37;8.03;;;;;;;;;;5120030;28;20070;-56
2021/01/02 22:51:00;;;;;;;14.23;9.97;;;;;;;;;;5119302;28;20023;-56
2021/01/02 22:53:45;;;;;;;13.17;10.20;;;;;;;;;;5119972;28;20016;-55
2021/01/02 22:59:35;;;;;;;11.07;9.10;;;;;;;;;;5062911;28;20053;-56
2021/01/02 23:02:31;;;;;;;11.93;9.03;;;;;;;;;;5120057;28;20028;-55
2021/01/02 23:08:35;;;;;;;12.00;8.43;;;;;;;;;;5063248;28;20718;-55
2021/01/02 23:11:05;;;;;;;11.77;8.37;;;;;;;;;;5119133;28;20031;-56
2021/01/02 23:14:09;;;;;;;14.40;8.47;;;;;;;;;;5118842;28;20028;-55
2021/01/02 23:16:54;;;;;;;13.03;9.30;;;;;;;;;;5102274;28;20027;-56
2021/01/02 23:19:27;;;;;;;12.97;8.43;;;;;;;;;;5122396;28;20035;-50
2021/01/02 23:22:28;;;;;;;13.97;9.30;;;;;;;;;;5123987;28;20107;-55
2021/01/02 23:24:57;;;;;;;;;;;;;;;;;;5104544;28;20092;-55
2021/01/02 23:27:58;;;;;;;10.07;7.57;;;;;;;;;;5122960;28;19904;-54